Cotes De La Manche — FQBE — position and weather

sailwx.info

Track history (hours):
 
Tides and Currents Weather Stations Pressure Air Temp Water Temp Dewpoint Dewpoint Depression Visibility Wind Speed Wind Dir Waves Ship Positions

Cotes De La Manche

Last reported at 2014-Nov-24 16:09 UTC. Time now 2014-Nov-27 14:27 UTC.
Position N 46°30' W 001°47'.

Length 25 m; draft 3.7 m.

Type: Other ship. MMSI: 227091000.

Date/timePositionNaut miles runAvg speedWind from/ knotsBaromVisibWave heightAir tempDewpointWater temp
2014-Nov-24 16:09N 46°30' W 001°47'0 0.0
2014-Nov-24 15:33N 46°30' W 001°47'0 0.0
2014-Nov-24 14:33N 46°30' W 001°47'0 0.0
2014-Nov-24 13:33N 46°30' W 001°47'0 0.0
2014-Nov-24 12:33N 46°30' W 001°47'0 0.0
2014-Nov-24 11:33N 46°30' W 001°47'0 0.0
2014-Nov-24 10:33N 46°30' W 001°47'0 0.0
2014-Nov-24 09:33N 46°30' W 001°47'0 0.0
2014-Nov-24 08:33N 46°30' W 001°47'0 0.0
2014-Nov-24 07:33N 46°30' W 001°47'0 0.0
2014-Nov-24 06:33N 46°30' W 001°47'0 0.0
2014-Nov-24 05:33N 46°30' W 001°47'0 0.0
2014-Nov-24 04:33N 46°30' W 001°47'0 0.0
2014-Nov-24 03:33N 46°30' W 001°47'0 0.0
2014-Nov-24 02:33N 46°30' W 001°47'0 0.0
2014-Nov-24 01:33N 46°30' W 001°47'0 0.0
2014-Nov-24 00:33N 46°30' W 001°47'0 0.0
2014-Nov-23 23:33N 46°30' W 001°47'0 0.0
2014-Nov-23 22:33N 46°30' W 001°47'0 0.0
2014-Nov-23 21:33N 46°30' W 001°47'0 0.1
2014-Nov-23 20:33N 46°30' W 001°47'0 0.1
2014-Nov-23 19:33N 46°30' W 001°47'0 0.0
2014-Nov-23 18:33N 46°30' W 001°47'0 0.0
2014-Nov-23 17:33N 46°30' W 001°47'0 0.0
2014-Nov-23 16:33N 46°30' W 001°47'1 0.8
2014-Nov-23 15:33N 46°29' W 001°47'  
2014-Nov-17 14:33N 46°21' W 001°49'1010.1
2014-Nov-17 13:33N 46°29' W 001°57'76 1.8
2014-Nov-15 20:29N 47°29' W 003°05'0 0.0
2014-Nov-15 19:16N 47°29' W 003°05'5 2.6
2014-Nov-15 17:10N 47°31' W 003°12'6 9.5
2014-Nov-15 16:33N 47°36' W 003°17'65 9.3
2014-Nov-15 09:32N 48°02' W 004°46'9 9.2
2014-Nov-15 08:33N 48°10' W 004°42'10 9.5
2014-Nov-15 07:33N 48°19' W 004°36'6 6.1
2014-Nov-15 06:33N 48°23' W 004°29'0 0.0
2014-Nov-15 05:33N 48°23' W 004°29'0 0.0
2014-Nov-15 04:33N 48°23' W 004°29'0 0.0
2014-Nov-15 03:33N 48°23' W 004°29'0 0.0
2014-Nov-15 02:33N 48°23' W 004°29'0 0.0
2014-Nov-15 01:33N 48°23' W 004°29'0 0.0
2014-Nov-15 00:33N 48°23' W 004°29'0 0.0
2014-Nov-14 23:33N 48°23' W 004°29'0 0.0
2014-Nov-14 22:33N 48°23' W 004°29'0 0.0
2014-Nov-14 21:33N 48°23' W 004°29'0 0.0
2014-Nov-14 20:33N 48°23' W 004°29'0 0.0
2014-Nov-14 19:33N 48°23' W 004°29'0 0.0
2014-Nov-14 18:33N 48°23' W 004°29'0 0.0
2014-Nov-14 17:33N 48°23' W 004°29'0 0.0
2014-Nov-14 16:33N 48°23' W 004°29'  
Track history (hours):
 
Tides and Currents Weather Stations Pressure Air Temp Water Temp Dewpoint Dewpoint Depression Visibility Wind Speed Wind Dir Waves Ship Positions

Cotes De La Manche

Last reported at 2014-Nov-24 16:09 UTC. Time now 2014-Nov-27 14:27 UTC.
Position N 46°30' W 001°47'.

Length 25 m; draft 3.7 m.

Type: Other ship. MMSI: 227091000.

Date/timePositionNaut miles runAvg speedWind from/ knotsBaromVisibWave heightAir tempDewpointWater temp
2014-Nov-24 16:09N 46°30' W 001°47'0 0.0
2014-Nov-24 15:33N 46°30' W 001°47'0 0.0
2014-Nov-24 14:33N 46°30' W 001°47'0 0.0
2014-Nov-24 13:33N 46°30' W 001°47'0 0.0
2014-Nov-24 12:33N 46°30' W 001°47'0 0.0
2014-Nov-24 11:33N 46°30' W 001°47'0 0.0
2014-Nov-24 10:33N 46°30' W 001°47'0 0.0
2014-Nov-24 09:33N 46°30' W 001°47'0 0.0
2014-Nov-24 08:33N 46°30' W 001°47'0 0.0
2014-Nov-24 07:33N 46°30' W 001°47'0 0.0
2014-Nov-24 06:33N 46°30' W 001°47'0 0.0
2014-Nov-24 05:33N 46°30' W 001°47'0 0.0
2014-Nov-24 04:33N 46°30' W 001°47'0 0.0
2014-Nov-24 03:33N 46°30' W 001°47'0 0.0
2014-Nov-24 02:33N 46°30' W 001°47'0 0.0
2014-Nov-24 01:33N 46°30' W 001°47'0 0.0
2014-Nov-24 00:33N 46°30' W 001°47'0 0.0
2014-Nov-23 23:33N 46°30' W 001°47'0 0.0
2014-Nov-23 22:33N 46°30' W 001°47'0 0.0
2014-Nov-23 21:33N 46°30' W 001°47'0 0.1
2014-Nov-23 20:33N 46°30' W 001°47'0 0.1
2014-Nov-23 19:33N 46°30' W 001°47'0 0.0
2014-Nov-23 18:33N 46°30' W 001°47'0 0.0
2014-Nov-23 17:33N 46°30' W 001°47'0 0.0
2014-Nov-23 16:33N 46°30' W 001°47'1 0.8
2014-Nov-23 15:33N 46°29' W 001°47'  
2014-Nov-17 14:33N 46°21' W 001°49'1010.1
2014-Nov-17 13:33N 46°29' W 001°57'76 1.8
2014-Nov-15 20:29N 47°29' W 003°05'0 0.0
2014-Nov-15 19:16N 47°29' W 003°05'5 2.6
2014-Nov-15 17:10N 47°31' W 003°12'6 9.5
2014-Nov-15 16:33N 47°36' W 003°17'65 9.3
2014-Nov-15 09:32N 48°02' W 004°46'9 9.2
2014-Nov-15 08:33N 48°10' W 004°42'10 9.5
2014-Nov-15 07:33N 48°19' W 004°36'6 6.1
2014-Nov-15 06:33N 48°23' W 004°29'0 0.0
2014-Nov-15 05:33N 48°23' W 004°29'0 0.0
2014-Nov-15 04:33N 48°23' W 004°29'0 0.0
2014-Nov-15 03:33N 48°23' W 004°29'0 0.0
2014-Nov-15 02:33N 48°23' W 004°29'0 0.0
2014-Nov-15 01:33N 48°23' W 004°29'0 0.0
2014-Nov-15 00:33N 48°23' W 004°29'0 0.0
2014-Nov-14 23:33N 48°23' W 004°29'0 0.0
2014-Nov-14 22:33N 48°23' W 004°29'0 0.0
2014-Nov-14 21:33N 48°23' W 004°29'0 0.0
2014-Nov-14 20:33N 48°23' W 004°29'0 0.0
2014-Nov-14 19:33N 48°23' W 004°29'0 0.0
2014-Nov-14 18:33N 48°23' W 004°29'0 0.0
2014-Nov-14 17:33N 48°23' W 004°29'0 0.0
2014-Nov-14 16:33N 48°23' W 004°29'  

Dump ship's entire track history